Time;durP1;ratioP1;P1;durP2;ratioP2;P2;SDS_P1;SDS_P2;PMS_P1;PMS_P2;Temp;Humidity;BMP_temperature;BMP_pressure;BME280_temperature;BME280_humidity;BME280_pressure;Samples;Min_cycle;Max_cycle;Signal;HPM_P1;HPM_P2
2023/01/12 00:01:18;;;;;;;6.13;2.00;;;;;;;;;;4960850;28;20237;-83
2023/01/12 00:03:44;;;;;;;6.10;2.00;;;;;;;;;;4959921;28;20237;-82
2023/01/12 00:06:10;;;;;;;8.33;2.13;;;;;;;;;;4960391;28;20238;-84
2023/01/12 00:08:37;;;;;;;8.20;2.13;;;;;;;;;;4944703;28;20214;-84
2023/01/12 00:11:03;;;;;;;6.00;2.00;;;;;;;;;;4960333;28;20190;-83
2023/01/12 00:13:30;;;;;;;6.30;1.90;;;;;;;;;;4977194;28;20277;-80
2023/01/12 00:18:42;;;;;;;7.17;2.27;;;;;;;;;;4996922;28;20227;-80
2023/01/12 00:21:08;;;;;;;9.33;2.17;;;;;;;;;;4979201;28;20217;-80
2023/01/12 00:23:34;;;;;;;8.07;2.80;;;;;;;;;;4963340;28;20186;-80
2023/01/12 00:26:00;;;;;;;9.07;2.83;;;;;;;;;;4967233;28;20212;-80
2023/01/12 00:28:26;;;;;;;12.10;2.90;;;;;;;;;;4962969;28;20185;-80
2023/01/12 00:30:52;;;;;;;10.17;2.77;;;;;;;;;;4970330;28;20201;-84
2023/01/12 00:33:18;;;;;;;9.50;3.07;;;;;;;;;;4959790;28;20191;-83
2023/01/12 00:35:45;;;;;;;7.87;3.03;;;;;;;;;;4962666;28;20194;-84
2023/01/12 00:38:11;;;;;;;11.90;3.33;;;;;;;;;;4978787;28;20277;-84
2023/01/12 00:40:37;;;;;;;13.50;3.60;;;;;;;;;;4958734;28;20252;-84
2023/01/12 00:45:50;;;;;;;10.33;3.60;;;;;;;;;;4962242;28;20197;-83
2023/01/12 00:48:17;;;;;;;14.77;4.40;;;;;;;;;;4950562;28;20208;-84
2023/01/12 00:50:45;;;;;;;15.50;4.57;;;;;;;;;;4974771;28;20277;-83
2023/01/12 00:53:11;;;;;;;15.63;4.20;;;;;;;;;;4947186;28;20186;-84
2023/01/12 00:55:37;;;;;;;11.10;4.07;;;;;;;;;;4957035;28;20186;-83
2023/01/12 00:58:03;;;;;;;14.80;4.77;;;;;;;;;;4962688;28;20220;-84
2023/01/12 01:00:29;;;;;;;11.47;4.43;;;;;;;;;;4972787;28;20211;-84
2023/01/12 01:02:56;;;;;;;18.13;4.93;;;;;;;;;;4944427;28;20202;-83
2023/01/12 01:05:22;;;;;;;14.27;4.70;;;;;;;;;;4941212;28;20258;-84
2023/01/12 01:07:48;;;;;;;17.87;5.20;;;;;;;;;;4959043;28;20217;-83
2023/01/12 01:10:15;;;;;;;21.37;5.33;;;;;;;;;;4943796;28;20183;-83
2023/01/12 01:12:41;;;;;;;21.97;5.80;;;;;;;;;;4949328;28;20186;-83
2023/01/12 01:15:08;;;;;;;21.63;5.70;;;;;;;;;;4994712;28;20209;-83
2023/01/12 01:17:34;;;;;;;20.20;5.93;;;;;;;;;;4972850;28;20190;-83
2023/01/12 01:20:00;;;;;;;22.43;6.37;;;;;;;;;;4995699;28;20221;-83
2023/01/12 01:22:26;;;;;;;26.77;6.87;;;;;;;;;;4978556;28;20182;-83
2023/01/12 01:24:52;;;;;;;18.60;6.80;;;;;;;;;;4958992;28;20273;-83
2023/01/12 01:27:18;;;;;;;16.70;6.30;;;;;;;;;;4958765;28;20248;-83
2023/01/12 01:29:45;;;;;;;19.83;6.87;;;;;;;;;;4958883;28;20198;-83
2023/01/12 01:32:11;;;;;;;25.53;6.57;;;;;;;;;;4959244;28;20194;-82
2023/01/12 01:34:37;;;;;;;24.70;6.70;;;;;;;;;;4971980;28;20194;-83
2023/01/12 01:37:03;;;;;;;22.73;6.60;;;;;;;;;;4974777;28;20189;-79
2023/01/12 01:39:29;;;;;;;23.40;6.27;;;;;;;;;;4974840;28;20309;-79
2023/01/12 01:41:55;;;;;;;21.63;6.60;;;;;;;;;;4974756;28;20262;-79
2023/01/12 01:44:30;;;;;;;18.33;6.07;;;;;;;;;;4958884;28;20213;-79
2023/01/12 01:46:59;;;;;;;17.17;5.87;;;;;;;;;;4974883;28;20218;-79
2023/01/12 01:49:25;;;;;;;18.63;5.87;;;;;;;;;;4974475;28;20183;-79
2023/01/12 01:51:53;;;;;;;17.67;5.40;;;;;;;;;;4975343;28;20185;-79
2023/01/12 01:54:19;;;;;;;15.47;5.50;;;;;;;;;;4974955;28;20226;-82
2023/01/12 01:56:45;;;;;;;18.20;5.13;;;;;;;;;;4961797;28;20273;-84
2023/01/12 01:59:18;;;;;;;18.63;5.27;;;;;;;;;;4961639;28;20210;-83
2023/01/12 02:01:44;;;;;;;17.27;5.37;;;;;;;;;;4977045;28;20182;-83
2023/01/12 02:04:10;;;;;;;16.33;4.70;;;;;;;;;;4949028;28;20225;-79
2023/01/12 02:06:36;;;;;;;16.40;4.37;;;;;;;;;;4958027;28;20218;-79
2023/01/12 02:09:02;;;;;;;14.40;4.40;;;;;;;;;;4957357;28;20194;-83
2023/01/12 02:16:58;;;;;;;16.93;4.67;;;;;;;;;;4980657;28;20254;-80
2023/01/12 02:19:24;;;;;;;19.03;4.10;;;;;;;;;;4964804;28;20238;-80
2023/01/12 02:21:50;;;;;;;16.30;4.00;;;;;;;;;;4959697;28;20183;-80
2023/01/12 02:24:19;;;;;;;15.60;4.10;;;;;;;;;;4976450;28;20201;-80
2023/01/12 02:27:04;;;;;;;15.97;4.03;;;;;;;;;;4965601;28;20229;-79
2023/01/12 02:29:36;;;;;;;16.40;4.07;;;;;;;;;;4962876;28;20218;-79
2023/01/12 02:32:13;;;;;;;17.17;4.17;;;;;;;;;;4975095;28;20249;-79
2023/01/12 02:34:48;;;;;;;15.30;4.13;;;;;;;;;;4964336;28;20190;-79
2023/01/12 02:37:14;;;;;;;14.27;3.70;;;;;;;;;;4972679;28;20333;-79
2023/01/12 02:39:46;;;;;;;11.13;3.40;;;;;;;;;;4973936;28;20293;-79
2023/01/12 02:45:06;;;;;;;12.20;3.50;;;;;;;;;;4987560;28;20193;-83
2023/01/12 02:47:32;;;;;;;14.47;3.60;;;;;;;;;;4995093;28;20201;-83
2023/01/12 02:49:59;;;;;;;14.83;3.50;;;;;;;;;;4979036;28;20186;-83
2023/01/12 02:52:27;;;;;;;16.23;3.77;;;;;;;;;;4997400;28;20239;-83
2023/01/12 02:54:53;;;;;;;9.77;3.20;;;;;;;;;;4997370;28;20244;-83
2023/01/12 02:57:21;;;;;;;13.23;3.60;;;;;;;;;;4979870;28;20189;-83
2023/01/12 02:59:49;;;;;;;14.23;3.47;;;;;;;;;;4966077;28;20214;-79
2023/01/12 03:02:18;;;;;;;15.27;3.40;;;;;;;;;;4968778;28;20189;-79
2023/01/12 03:04:44;;;;;;;14.53;3.60;;;;;;;;;;4965474;28;20253;-79
2023/01/12 03:07:13;;;;;;;11.77;2.93;;;;;;;;;;4947922;28;20328;-79
2023/01/12 03:09:43;;;;;;;13.30;2.77;;;;;;;;;;4961290;28;20191;-79
2023/01/12 03:12:28;;;;;;;6.43;2.40;;;;;;;;;;4960907;28;20398;-79
2023/01/12 03:14:54;;;;;;;9.47;2.90;;;;;;;;;;4994356;28;20186;-79
2023/01/12 03:17:36;;;;;;;11.27;3.20;;;;;;;;;;4960315;28;20190;-83
2023/01/12 03:20:22;;;;;;;12.87;3.67;;;;;;;;;;4966968;28;20214;-82
2023/01/12 03:22:49;;;;;;;15.37;3.80;;;;;;;;;;4971119;28;20178;-83
2023/01/12 03:25:16;;;;;;;13.50;4.23;;;;;;;;;;4956950;28;20198;-82
2023/01/12 03:27:45;;;;;;;15.90;4.37;;;;;;;;;;4964300;28;20190;-83
2023/01/12 03:30:16;;;;;;;13.57;3.97;;;;;;;;;;4985921;28;20297;-83
2023/01/12 03:32:42;;;;;;;14.57;3.97;;;;;;;;;;4969684;28;20218;-83
2023/01/12 03:35:08;;;;;;;17.47;4.60;;;;;;;;;;4975805;28;20304;-84
2023/01/12 03:37:37;;;;;;;17.47;4.53;;;;;;;;;;4963298;28;20189;-83
2023/01/12 03:40:12;;;;;;;18.07;4.00;;;;;;;;;;4976354;28;20255;-84
2023/01/12 03:42:50;;;;;;;22.10;4.30;;;;;;;;;;4960628;28;20181;-84
2023/01/12 03:45:35;;;;;;;17.13;4.30;;;;;;;;;;4964499;28;20181;-83
2023/01/12 03:48:30;;;;;;;14.47;3.70;;;;;;;;;;4976334;28;20772;-82
2023/01/12 03:51:04;;;;;;;16.80;3.73;;;;;;;;;;4952491;28;20186;-79
2023/01/12 03:53:31;;;;;;;12.30;3.37;;;;;;;;;;4970761;28;20190;-78
2023/01/12 03:55:59;;;;;;;15.37;3.50;;;;;;;;;;4968511;28;20175;-78
2023/01/12 03:58:25;;;;;;;12.10;3.23;;;;;;;;;;4977621;28;20225;-78
2023/01/12 04:00:51;;;;;;;11.97;3.10;;;;;;;;;;4960626;28;20210;-79
2023/01/12 04:03:17;;;;;;;13.50;3.23;;;;;;;;;;4980463;28;20179;-79
2023/01/12 04:05:44;;;;;;;13.37;3.03;;;;;;;;;;4988044;28;20310;-79
2023/01/12 04:08:12;;;;;;;14.23;3.20;;;;;;;;;;4944401;28;20194;-79
2023/01/12 04:10:38;;;;;;;15.63;3.70;;;;;;;;;;4963319;28;20185;-79
2023/01/12 04:13:04;;;;;;;12.00;2.90;;;;;;;;;;4980120;28;20181;-79
2023/01/12 04:15:30;;;;;;;14.63;3.70;;;;;;;;;;4964000;28;20190;-79
2023/01/12 04:17:57;;;;;;;13.87;2.90;;;;;;;;;;4963712;28;20215;-79
2023/01/12 04:20:23;;;;;;;14.53;3.00;;;;;;;;;;4979475;28;20277;-79
2023/01/12 04:22:49;;;;;;;13.53;3.47;;;;;;;;;;4964394;28;20178;-79
2023/01/12 04:25:16;;;;;;;11.30;2.90;;;;;;;;;;4963541;28;20182;-78
2023/01/12 04:27:46;;;;;;;8.73;2.67;;;;;;;;;;4979401;28;20174;-78
2023/01/12 04:30:13;;;;;;;9.73;2.70;;;;;;;;;;4996664;28;20182;-79
2023/01/12 04:32:39;;;;;;;7.97;2.80;;;;;;;;;;4963082;28;20199;-78
2023/01/12 04:35:05;;;;;;;9.77;3.20;;;;;;;;;;4975439;28;20201;-79
2023/01/12 04:37:32;;;;;;;11.77;2.90;;;;;;;;;;4974676;28;20189;-78
2023/01/12 04:39:58;;;;;;;11.93;2.80;;;;;;;;;;4978698;28;20304;-78
2023/01/12 04:45:09;;;;;;;12.03;2.90;;;;;;;;;;4977292;28;20193;-78
2023/01/12 04:47:35;;;;;;;13.20;3.00;;;;;;;;;;4991318;28;20202;-78
2023/01/12 04:50:01;;;;;;;16.67;3.30;;;;;;;;;;4956900;28;20255;-78
2023/01/12 04:52:27;;;;;;;11.53;3.13;;;;;;;;;;4955494;28;20197;-78
2023/01/12 04:54:53;;;;;;;12.57;3.10;;;;;;;;;;4986114;28;20183;-78
2023/01/12 04:57:19;;;;;;;16.87;3.13;;;;;;;;;;4976523;28;20258;-80
2023/01/12 04:59:45;;;;;;;16.50;3.67;;;;;;;;;;4957503;28;20210;-80
2023/01/12 05:02:11;;;;;;;13.03;3.00;;;;;;;;;;4962291;28;20329;-80
2023/01/12 05:04:38;;;;;;;16.57;3.27;;;;;;;;;;4963337;28;20182;-80
2023/01/12 05:07:04;;;;;;;11.20;3.07;;;;;;;;;;5003522;28;20240;-80
2023/01/12 05:12:14;;;;;;;10.87;2.50;;;;;;;;;;4991888;28;20188;-80
2023/01/12 05:14:40;;;;;;;9.90;2.87;;;;;;;;;;4978567;28;20193;-78
2023/01/12 05:17:06;;;;;;;10.83;3.00;;;;;;;;;;4959164;28;20183;-78
2023/01/12 05:19:32;;;;;;;8.77;2.60;;;;;;;;;;4959233;28;20214;-78
2023/01/12 05:21:58;;;;;;;11.63;2.67;;;;;;;;;;4975332;28;20175;-78
2023/01/12 05:24:24;;;;;;;10.63;2.40;;;;;;;;;;4975106;28;20204;-79
2023/01/12 05:26:50;;;;;;;13.47;3.07;;;;;;;;;;4975309;28;20175;-78
2023/01/12 05:29:16;;;;;;;11.33;2.93;;;;;;;;;;4970650;28;20198;-78
2023/01/12 05:31:42;;;;;;;8.47;2.10;;;;;;;;;;4956016;28;20270;-83
2023/01/12 05:34:08;;;;;;;8.10;2.30;;;;;;;;;;4958992;28;20209;-83
2023/01/12 05:36:34;;;;;;;8.00;2.20;;;;;;;;;;4959021;28;20190;-83
2023/01/12 05:39:00;;;;;;;8.67;2.20;;;;;;;;;;4958997;28;20210;-83
2023/01/12 05:41:27;;;;;;;7.63;2.40;;;;;;;;;;4959187;28;20246;-83
2023/01/12 05:43:53;;;;;;;8.00;2.03;;;;;;;;;;4959140;28;20182;-83
2023/01/12 05:46:30;;;;;;;7.47;2.20;;;;;;;;;;4959296;28;20183;-79
2023/01/12 05:48:57;;;;;;;7.70;1.70;;;;;;;;;;4959039;28;20186;-78
2023/01/12 05:51:24;;;;;;;8.37;1.77;;;;;;;;;;4958856;28;20171;-78
2023/01/12 05:53:50;;;;;;;7.93;1.90;;;;;;;;;;4958614;28;20191;-78
2023/01/12 05:56:18;;;;;;;9.37;2.53;;;;;;;;;;4958805;28;20186;-79
2023/01/12 05:58:48;;;;;;;7.37;1.97;;;;;;;;;;4971320;28;20190;-84
2023/01/12 06:01:14;;;;;;;9.23;2.07;;;;;;;;;;4981177;28;20240;-84
2023/01/12 06:03:40;;;;;;;6.83;1.97;;;;;;;;;;4966478;28;20190;-84
2023/01/12 06:06:06;;;;;;;7.00;1.80;;;;;;;;;;4963058;28;20308;-83
2023/01/12 06:08:32;;;;;;;7.07;1.90;;;;;;;;;;4958757;28;20274;-83
2023/01/12 06:11:02;;;;;;;10.43;2.10;;;;;;;;;;4946657;28;20194;-82
2023/01/12 06:16:23;;;;;;;10.10;2.23;;;;;;;;;;4991600;28;20186;-84
2023/01/12 06:18:49;;;;;;;7.50;2.40;;;;;;;;;;4966845;28;20186;-83
2023/01/12 06:21:15;;;;;;;4.13;1.67;;;;;;;;;;4962445;28;20186;-79
2023/01/12 06:23:41;;;;;;;6.97;1.87;;;;;;;;;;4986979;28;20185;-79
2023/01/12 06:26:08;;;;;;;7.80;2.10;;;;;;;;;;4965475;28;20193;-79
2023/01/12 06:28:38;;;;;;;6.33;1.80;;;;;;;;;;4963630;28;20197;-79
2023/01/12 06:31:05;;;;;;;8.57;1.80;;;;;;;;;;4975494;28;20200;-79
2023/01/12 06:33:31;;;;;;;6.87;2.10;;;;;;;;;;4963296;28;20210;-79
2023/01/12 06:35:58;;;;;;;11.00;2.33;;;;;;;;;;4950655;28;20277;-79
2023/01/12 06:38:25;;;;;;;7.20;2.07;;;;;;;;;;4977032;28;20197;-79
2023/01/12 06:40:51;;;;;;;7.07;2.00;;;;;;;;;;4969921;28;20237;-79
2023/01/12 06:43:18;;;;;;;6.27;1.90;;;;;;;;;;4979879;28;20196;-79
2023/01/12 06:45:44;;;;;;;7.93;1.90;;;;;;;;;;4964104;28;20281;-79
2023/01/12 06:48:10;;;;;;;6.07;1.90;;;;;;;;;;4979413;28;20216;-79
2023/01/12 06:50:36;;;;;;;7.13;2.17;;;;;;;;;;4996803;28;20190;-79
2023/01/12 06:53:03;;;;;;;9.33;2.23;;;;;;;;;;4964086;28;20221;-80
2023/01/12 06:55:29;;;;;;;10.07;1.93;;;;;;;;;;4979281;28;20189;-80
2023/01/12 06:57:55;;;;;;;6.87;2.13;;;;;;;;;;4962356;28;20197;-80
2023/01/12 07:00:21;;;;;;;4.83;1.97;;;;;;;;;;4963877;28;20217;-80
2023/01/12 07:02:51;;;;;;;6.03;1.93;;;;;;;;;;4976498;28;20232;-80
2023/01/12 07:05:17;;;;;;;6.13;2.17;;;;;;;;;;4960334;28;20193;-81
2023/01/12 07:07:44;;;;;;;4.93;1.93;;;;;;;;;;4962086;28;20221;-81
2023/01/12 07:10:13;;;;;;;6.27;2.00;;;;;;;;;;4976896;28;20183;-79
2023/01/12 07:12:39;;;;;;;5.53;1.97;;;;;;;;;;4968820;28;20198;-79
2023/01/12 07:15:06;;;;;;;7.67;1.90;;;;;;;;;;4971266;28;20191;-79
2023/01/12 07:17:32;;;;;;;4.03;2.00;;;;;;;;;;4974392;28;20185;-78
2023/01/12 07:19:58;;;;;;;2.37;1.80;;;;;;;;;;4960197;28;20312;-78
2023/01/12 07:22:25;;;;;;;6.27;2.03;;;;;;;;;;4963211;28;20237;-79
2023/01/12 07:24:51;;;;;;;6.50;2.20;;;;;;;;;;4959888;28;20178;-79
2023/01/12 07:27:17;;;;;;;5.43;2.50;;;;;;;;;;4971981;28;20194;-84
2023/01/12 07:29:45;;;;;;;4.77;2.37;;;;;;;;;;4979867;28;20240;-84
2023/01/12 07:32:11;;;;;;;6.57;2.30;;;;;;;;;;4964253;28;20284;-84
2023/01/12 07:34:38;;;;;;;4.63;2.60;;;;;;;;;;5003587;28;20197;-84
2023/01/12 07:37:04;;;;;;;5.03;2.50;;;;;;;;;;4968631;28;20216;-84
2023/01/12 07:39:30;;;;;;;5.13;2.57;;;;;;;;;;4973944;28;20241;-84
2023/01/12 07:44:41;;;;;;;6.00;2.90;;;;;;;;;;4983259;28;20250;-79
2023/01/12 07:47:07;;;;;;;4.93;2.87;;;;;;;;;;4963216;28;20289;-79
2023/01/12 07:49:34;;;;;;;6.30;2.97;;;;;;;;;;4978842;28;20260;-79
2023/01/12 07:52:00;;;;;;;5.47;3.00;;;;;;;;;;4964419;28;20224;-79
2023/01/12 07:54:26;;;;;;;5.10;2.83;;;;;;;;;;4960422;28;20197;-78
2023/01/12 07:56:52;;;;;;;4.97;3.30;;;;;;;;;;4947854;28;20186;-78
2023/01/12 07:59:19;;;;;;;4.70;3.10;;;;;;;;;;4960800;28;20214;-79
2023/01/12 08:01:45;;;;;;;5.50;3.03;;;;;;;;;;4960100;28;20193;-82
2023/01/12 08:04:11;;;;;;;6.60;2.97;;;;;;;;;;4964565;28;20186;-81
2023/01/12 08:06:37;;;;;;;7.60;3.33;;;;;;;;;;4960884;28;20219;-81
2023/01/12 08:09:03;;;;;;;3.70;2.80;;;;;;;;;;4978163;28;20328;-81
2023/01/12 08:11:29;;;;;;;5.40;3.20;;;;;;;;;;4966619;28;20322;-82
2023/01/12 08:13:56;;;;;;;5.33;3.00;;;;;;;;;;4943800;28;20269;-83
2023/01/12 08:16:35;;;;;;;4.33;3.10;;;;;;;;;;4959687;28;20241;-83
2023/01/12 08:19:03;;;;;;;6.87;3.40;;;;;;;;;;4959605;28;20230;-83
2023/01/12 08:21:35;;;;;;;7.07;3.70;;;;;;;;;;4974519;28;20189;-79
2023/01/12 08:24:03;;;;;;;5.37;3.63;;;;;;;;;;4963976;28;20187;-79
2023/01/12 08:26:35;;;;;;;5.50;3.63;;;;;;;;;;4960265;28;20171;-79
2023/01/12 08:29:06;;;;;;;8.60;3.50;;;;;;;;;;4964854;28;20190;-80
2023/01/12 08:31:32;;;;;;;7.37;4.00;;;;;;;;;;4960159;28;20202;-79
2023/01/12 08:34:01;;;;;;;5.60;3.60;;;;;;;;;;4955510;28;20242;-80
2023/01/12 08:36:28;;;;;;;6.63;3.80;;;;;;;;;;4959721;28;20198;-79
2023/01/12 08:38:55;;;;;;;8.40;3.70;;;;;;;;;;4959460;28;20189;-80
2023/01/12 08:41:33;;;;;;;6.70;3.97;;;;;;;;;;4959311;28;20266;-79
2023/01/12 08:44:09;;;;;;;5.70;3.60;;;;;;;;;;4960206;28;20186;-79
2023/01/12 08:46:47;;;;;;;6.20;3.43;;;;;;;;;;4983785;28;20185;-79
2023/01/12 08:49:14;;;;;;;6.37;3.50;;;;;;;;;;4983813;28;20292;-80
2023/01/12 08:51:40;;;;;;;6.07;3.77;;;;;;;;;;4978879;28;20194;-79
2023/01/12 08:54:07;;;;;;;9.53;3.83;;;;;;;;;;4975595;28;20277;-79
2023/01/12 08:56:33;;;;;;;6.50;3.40;;;;;;;;;;4971750;28;20193;-79
2023/01/12 08:58:59;;;;;;;5.83;3.60;;;;;;;;;;4956259;28;20198;-79
2023/01/12 09:01:26;;;;;;;7.90;4.00;;;;;;;;;;4955797;28;20218;-79
2023/01/12 09:03:52;;;;;;;6.20;3.30;;;;;;;;;;4955743;28;20187;-80
2023/01/12 09:06:20;;;;;;;5.90;3.80;;;;;;;;;;4965742;28;20221;-79
2023/01/12 09:08:47;;;;;;;5.23;3.70;;;;;;;;;;4958787;28;20210;-79
2023/01/12 09:11:14;;;;;;;5.87;3.27;;;;;;;;;;4966705;28;20186;-79
2023/01/12 09:13:41;;;;;;;5.13;3.60;;;;;;;;;;4963586;28;20202;-80
2023/01/12 09:16:08;;;;;;;6.57;3.83;;;;;;;;;;4959188;28;20198;-80
2023/01/12 09:18:34;;;;;;;5.60;3.63;;;;;;;;;;4974022;28;20195;-80
2023/01/12 09:21:04;;;;;;;7.83;3.87;;;;;;;;;;4992671;23;20253;-79
2023/01/12 09:23:30;;;;;;;6.77;4.13;;;;;;;;;;4971484;28;20186;-81
2023/01/12 09:25:56;;;;;;;5.93;3.97;;;;;;;;;;4958771;28;20269;-82
2023/01/12 09:28:22;;;;;;;5.97;4.13;;;;;;;;;;4958731;28;20222;-81
2023/01/12 09:30:48;;;;;;;5.47;3.90;;;;;;;;;;4988356;28;20186;-82
2023/01/12 09:33:14;;;;;;;6.97;4.70;;;;;;;;;;4976927;28;20268;-82
2023/01/12 09:35:43;;;;;;;6.43;4.07;;;;;;;;;;4977373;28;20174;-82
2023/01/12 09:38:09;;;;;;;6.10;4.17;;;;;;;;;;5000894;28;20191;-85
2023/01/12 09:40:35;;;;;;;8.30;4.87;;;;;;;;;;4967200;28;20264;-79
2023/01/12 09:48:30;;;;;;;6.47;4.00;;;;;;;;;;4994741;28;20213;-79
2023/01/12 09:51:05;;;;;;;6.60;4.33;;;;;;;;;;4959983;28;20190;-79
2023/01/12 09:53:34;;;;;;;6.47;4.33;;;;;;;;;;4958702;28;20274;-80
2023/01/12 09:56:08;;;;;;;4.80;3.70;;;;;;;;;;4987025;28;20225;-79
2023/01/12 09:58:43;;;;;;;5.60;3.87;;;;;;;;;;4973347;28;20231;-79
2023/01/12 10:01:11;;;;;;;7.97;4.40;;;;;;;;;;4978369;28;20205;-80
2023/01/12 10:03:37;;;;;;;5.73;4.63;;;;;;;;;;4978832;28;20183;-79
2023/01/12 10:06:05;;;;;;;4.93;3.70;;;;;;;;;;4983636;28;20193;-79
2023/01/12 10:08:35;;;;;;;6.17;3.93;;;;;;;;;;4978361;28;20204;-79
2023/01/12 10:11:06;;;;;;;6.13;3.93;;;;;;;;;;4985582;28;20186;-79
2023/01/12 10:13:51;;;;;;;6.60;3.87;;;;;;;;;;4980923;28;20182;-85
2023/01/12 10:16:27;;;;;;;7.87;3.80;;;;;;;;;;4984652;28;20190;-86
2023/01/12 10:18:56;;;;;;;5.00;3.40;;;;;;;;;;4989975;28;20236;-85
2023/01/12 10:21:22;;;;;;;5.13;3.47;;;;;;;;;;4975364;28;20229;-85
2023/01/12 10:23:50;;;;;;;6.40;3.30;;;;;;;;;;4983938;28;20174;-85
2023/01/12 10:26:19;;;;;;;5.27;3.17;;;;;;;;;;4985616;28;20182;-84
2023/01/12 10:28:45;;;;;;;5.53;3.40;;;;;;;;;;4980662;28;20274;-86
2023/01/12 10:31:22;;;;;;;5.40;3.00;;;;;;;;;;4965556;28;20186;-85
2023/01/12 10:34:06;;;;;;;6.97;3.30;;;;;;;;;;4958207;28;20233;-85
2023/01/12 10:36:32;;;;;;;4.33;2.90;;;;;;;;;;4971622;28;20249;-86
2023/01/12 10:39:06;;;;;;;4.40;2.80;;;;;;;;;;4977329;28;20212;-85
2023/01/12 10:41:33;;;;;;;7.60;2.70;;;;;;;;;;4968326;28;20178;-84
2023/01/12 10:43:59;;;;;;;2.67;1.90;;;;;;;;;;4977162;28;20174;-82
2023/01/12 10:46:30;;;;;;;3.70;2.40;;;;;;;;;;4965865;28;20245;-79
2023/01/12 10:49:14;;;;;;;3.17;2.07;;;;;;;;;;4962187;28;20183;-80
2023/01/12 10:51:55;;;;;;;4.07;2.10;;;;;;;;;;4975654;28;20182;-79
2023/01/12 10:54:34;;;;;;;3.93;2.10;;;;;;;;;;4970466;28;20186;-80
2023/01/12 10:57:07;;;;;;;4.90;2.40;;;;;;;;;;4977343;28;20189;-80
2023/01/12 10:59:38;;;;;;;4.70;2.50;;;;;;;;;;4979671;28;20214;-80
2023/01/12 11:02:10;;;;;;;4.83;2.30;;;;;;;;;;4968878;28;20186;-80
2023/01/12 11:04:37;;;;;;;5.13;2.50;;;;;;;;;;4991637;28;20182;-80
2023/01/12 11:07:03;;;;;;;3.37;2.10;;;;;;;;;;4994571;28;20194;-80
2023/01/12 11:09:30;;;;;;;4.63;2.37;;;;;;;;;;4998832;28;20174;-82
2023/01/12 11:11:58;;;;;;;5.27;2.53;;;;;;;;;;4964003;28;20194;-82
2023/01/12 11:14:26;;;;;;;4.03;2.43;;;;;;;;;;4961922;28;20186;-81
2023/01/12 11:16:52;;;;;;;8.83;3.00;;;;;;;;;;4980058;28;20189;-81
2023/01/12 11:19:21;;;;;;;5.07;2.80;;;;;;;;;;4968679;28;20209;-81
2023/01/12 11:21:53;;;;;;;7.10;2.80;;;;;;;;;;4977943;28;20214;-85
2023/01/12 11:24:32;;;;;;;5.47;2.77;;;;;;;;;;4974757;28;20183;-85
2023/01/12 11:27:00;;;;;;;4.03;2.40;;;;;;;;;;4972524;28;20178;-84
2023/01/12 11:29:33;;;;;;;3.07;2.40;;;;;;;;;;4991841;28;20190;-84
2023/01/12 11:32:01;;;;;;;3.43;2.80;;;;;;;;;;4979396;28;20186;-85
2023/01/12 11:34:33;;;;;;;4.37;3.30;;;;;;;;;;4983751;28;20186;-84
2023/01/12 11:37:10;;;;;;;4.07;2.80;;;;;;;;;;4975703;28;20178;-79
2023/01/12 11:39:38;;;;;;;3.67;2.80;;;;;;;;;;4974560;28;20268;-80
2023/01/12 11:45:16;;;;;;;3.17;2.77;;;;;;;;;;4977939;28;20202;-86
2023/01/12 11:47:45;;;;;;;3.23;2.90;;;;;;;;;;4969557;28;20226;-85
2023/01/12 11:50:14;;;;;;;3.40;3.07;;;;;;;;;;4973509;28;20210;-85
2023/01/12 11:52:40;;;;;;;4.67;3.30;;;;;;;;;;4969681;28;20284;-85
2023/01/12 11:55:12;;;;;;;3.70;3.40;;;;;;;;;;4961499;28;20225;-79
2023/01/12 11:57:39;;;;;;;5.90;3.40;;;;;;;;;;4978531;28;20278;-80
2023/01/12 12:00:11;;;;;;;6.13;3.57;;;;;;;;;;4959025;28;20210;-80
2023/01/12 12:02:49;;;;;;;5.47;3.70;;;;;;;;;;4974237;28;20178;-80
2023/01/12 12:05:25;;;;;;;4.80;3.40;;;;;;;;;;4969265;28;20186;-80
2023/01/12 12:08:01;;;;;;;4.90;3.37;;;;;;;;;;4976705;28;20182;-80
2023/01/12 12:10:51;;;;;;;5.37;3.27;;;;;;;;;;4977346;28;20185;-82
2023/01/12 12:13:17;;;;;;;4.17;3.37;;;;;;;;;;4984142;28;20293;-83
2023/01/12 12:15:46;;;;;;;5.27;3.47;;;;;;;;;;4966573;28;20250;-83
2023/01/12 12:18:22;;;;;;;6.60;3.87;;;;;;;;;;4961188;28;20195;-83
2023/01/12 12:20:54;;;;;;;5.73;3.40;;;;;;;;;;4959399;28;20238;-83
2023/01/12 12:23:32;;;;;;;5.37;3.50;;;;;;;;;;4968084;28;20193;-83
2023/01/12 12:26:07;;;;;;;6.87;3.30;;;;;;;;;;4994520;28;20241;-82
2023/01/12 12:28:36;;;;;;;5.10;3.40;;;;;;;;;;4997168;28;20181;-82
2023/01/12 12:31:21;;;;;;;6.23;3.63;;;;;;;;;;4977298;28;20288;-83
2023/01/12 12:34:00;;;;;;;7.20;3.50;;;;;;;;;;4975487;28;20194;-82
2023/01/12 12:36:26;;;;;;;4.13;3.37;;;;;;;;;;4958863;28;20201;-81
2023/01/12 12:39:01;;;;;;;4.70;3.40;;;;;;;;;;4969413;28;20181;-83
2023/01/12 12:47:25;;;;;;;4.90;3.00;;;;;;;;;;4980510;28;20241;-80
2023/01/12 12:49:54;;;;;;;2.97;2.37;;;;;;;;;;4959846;28;20190;-80
2023/01/12 12:52:20;;;;;;;3.03;2.70;;;;;;;;;;4984074;28;20280;-79
2023/01/12 12:54:47;;;;;;;2.50;2.30;;;;;;;;;;4967032;28;20186;-79
2023/01/12 12:57:13;;;;;;;4.70;2.73;;;;;;;;;;4973167;28;20264;-79
2023/01/12 12:59:39;;;;;;;2.50;2.30;;;;;;;;;;4957805;28;20214;-81
2023/01/12 13:02:25;;;;;;;2.70;2.43;;;;;;;;;;4974366;28;20189;-82
2023/01/12 13:04:52;;;;;;;2.97;2.67;;;;;;;;;;4960053;28;20194;-82
2023/01/12 13:07:22;;;;;;;3.13;2.80;;;;;;;;;;4961972;28;20190;-82
2023/01/12 13:09:48;;;;;;;3.47;2.77;;;;;;;;;;4977626;28;20217;-82
2023/01/12 13:12:17;;;;;;;3.10;2.80;;;;;;;;;;4960011;28;20277;-83
2023/01/12 13:14:47;;;;;;;3.00;2.67;;;;;;;;;;4961308;28;20202;-81
2023/01/12 13:17:22;;;;;;;2.63;2.43;;;;;;;;;;4944427;28;20249;-78
2023/01/12 13:20:01;;;;;;;3.43;3.10;;;;;;;;;;4960098;28;20241;-80
2023/01/12 13:22:39;;;;;;;3.40;3.10;;;;;;;;;;4958342;28;20300;-79
2023/01/12 13:25:26;;;;;;;3.20;2.90;;;;;;;;;;4964563;28;20209;-80
2023/01/12 13:27:58;;;;;;;3.60;3.30;;;;;;;;;;4992643;28;20273;-80
2023/01/12 13:30:28;;;;;;;4.17;3.30;;;;;;;;;;4976447;28;20182;-80
2023/01/12 13:33:13;;;;;;;4.20;3.30;;;;;;;;;;4977162;28;20185;-79
2023/01/12 13:35:45;;;;;;;3.30;3.00;;;;;;;;;;4968005;28;20190;-79
2023/01/12 13:38:37;;;;;;;3.27;2.93;;;;;;;;;;4989143;28;20190;-80
2023/01/12 13:41:03;;;;;;;2.90;2.57;;;;;;;;;;4958327;28;20237;-79
2023/01/12 13:43:33;;;;;;;2.60;2.40;;;;;;;;;;4982127;28;20186;-80
2023/01/12 13:46:04;;;;;;;3.40;2.60;;;;;;;;;;4976823;28;20248;-80
2023/01/12 13:48:33;;;;;;;3.53;2.10;;;;;;;;;;4959340;28;20249;-82
2023/01/12 13:51:12;;;;;;;2.23;1.80;;;;;;;;;;4990143;28;20225;-85
2023/01/12 13:53:38;;;;;;;2.33;1.80;;;;;;;;;;4982690;28;20226;-85
2023/01/12 13:56:05;;;;;;;2.00;1.80;;;;;;;;;;4977618;28;20192;-84
2023/01/12 13:58:39;;;;;;;2.10;1.83;;;;;;;;;;4978917;28;20181;-85
2023/01/12 14:01:07;;;;;;;1.93;1.73;;;;;;;;;;4967377;28;20209;-85
2023/01/12 14:03:51;;;;;;;2.27;1.93;;;;;;;;;;4979570;28;20257;-86
2023/01/12 14:06:47;;;;;;;3.83;1.80;;;;;;;;;;4963933;28;20181;-86
2023/01/12 14:09:29;;;;;;;2.40;1.80;;;;;;;;;;4907625;28;20198;-80
2023/01/12 14:12:01;;;;;;;2.67;1.67;;;;;;;;;;4974230;28;20174;-80
2023/01/12 14:20:14;;;;;;;2.37;1.47;;;;;;;;;;4995465;28;20216;-80
2023/01/12 14:22:40;;;;;;;1.77;1.33;;;;;;;;;;4970688;28;20194;-80
2023/01/12 14:25:17;;;;;;;2.20;1.37;;;;;;;;;;4961167;28;20186;-85
2023/01/12 14:27:54;;;;;;;1.17;1.10;;;;;;;;;;4972786;28;20190;-85
2023/01/12 14:30:21;;;;;;;3.10;1.50;;;;;;;;;;4981766;28;20189;-85
2023/01/12 14:32:48;;;;;;;2.30;1.47;;;;;;;;;;4985963;28;20178;-84
2023/01/12 14:35:19;;;;;;;2.37;1.40;;;;;;;;;;4978079;28;20190;-85
2023/01/12 14:37:54;;;;;;;2.27;1.50;;;;;;;;;;4978597;28;20228;-85
2023/01/12 14:40:25;;;;;;;1.80;1.50;;;;;;;;;;4975126;28;20218;-80
2023/01/12 14:48:32;;;;;;;1.67;1.20;;;;;;;;;;4970644;28;20201;-80
2023/01/12 14:50:59;;;;;;;2.03;1.40;;;;;;;;;;4977683;28;20181;-80
2023/01/12 14:53:31;;;;;;;1.77;1.23;;;;;;;;;;4966626;28;20225;-80
2023/01/12 14:56:05;;;;;;;1.93;1.20;;;;;;;;;;4962272;28;20245;-80
2023/01/12 14:58:31;;;;;;;2.50;1.63;;;;;;;;;;4974719;28;20196;-79
2023/01/12 15:00:57;;;;;;;2.37;1.53;;;;;;;;;;4963638;28;20218;-80
2023/01/12 15:03:24;;;;;;;1.40;1.30;;;;;;;;;;4975291;28;20254;-80
2023/01/12 15:05:53;;;;;;;1.60;1.40;;;;;;;;;;4987011;28;20269;-80
2023/01/12 15:08:25;;;;;;;1.33;1.23;;;;;;;;;;4961545;28;20191;-79
2023/01/12 15:11:09;;;;;;;2.33;1.53;;;;;;;;;;4966752;28;20232;-79
2023/01/12 15:13:36;;;;;;;1.43;1.33;;;;;;;;;;4977111;28;20170;-86
2023/01/12 15:27:18;;;;;;;1.70;1.37;;;;;;;;;;4986230;28;20201;-85
2023/01/12 15:29:44;;;;;;;2.07;1.57;;;;;;;;;;4966463;28;20245;-83
2023/01/12 15:32:31;;;;;;;1.50;1.40;;;;;;;;;;4977579;28;20244;-83
2023/01/12 15:34:57;;;;;;;2.70;1.67;;;;;;;;;;4964475;28;20193;-81
2023/01/12 15:37:23;;;;;;;1.90;1.80;;;;;;;;;;4957778;28;20210;-82
2023/01/12 15:39:49;;;;;;;2.33;2.13;;;;;;;;;;4958075;28;20249;-80
2023/01/12 15:42:16;;;;;;;3.27;2.47;;;;;;;;;;4963121;28;20281;-80
2023/01/12 15:44:46;;;;;;;2.33;1.50;;;;;;;;;;4964491;28;20179;-80
2023/01/12 15:47:13;;;;;;;1.70;1.60;;;;;;;;;;4949707;28;20197;-80
2023/01/12 15:49:39;;;;;;;1.97;1.70;;;;;;;;;;4955486;28;20197;-79
2023/01/12 15:52:09;;;;;;;2.20;1.67;;;;;;;;;;4961056;28;20194;-79